Time;durP1;ratioP1;P1;durP2;ratioP2;P2;SDS_P1;SDS_P2;PMS_P1;PMS_P2;Temp;Humidity;BMP_temperature;BMP_pressure;BME280_temperature;BME280_humidity;BME280_pressure;Samples;Min_cycle;Max_cycle;Signal;HPM_P1;HPM_P2
2023/04/23 00:01:38;;;;;;;3.67;2.70;;;15.80;99.90;;;;;;5039129;28;20174;-83
2023/04/23 00:04:07;;;;;;;4.35;3.05;;;15.80;99.90;;;;;;5038571;28;20244;-82
2023/04/23 00:06:36;;;;;;;6.88;3.30;;;15.80;99.90;;;;;;5057183;28;20627;-82
2023/04/23 00:09:02;;;;;;;3.38;2.70;;;15.80;99.90;;;;;;5055717;28;20182;-83
2023/04/23 00:11:28;;;;;;;5.22;3.42;;;15.80;99.90;;;;;;5055840;28;20178;-83
2023/04/23 00:13:55;;;;;;;4.97;3.25;;;15.80;99.90;;;;;;5055940;28;20189;-83
2023/04/23 00:16:21;;;;;;;6.18;3.17;;;15.80;99.90;;;;;;5055913;28;20207;-84
2023/04/23 00:18:47;;;;;;;4.55;2.88;;;15.80;99.90;;;;;;5056939;28;20169;-84
2023/04/23 00:21:12;;;;;;;6.70;3.63;;;15.80;99.90;;;;;;5055932;28;20177;-83
2023/04/23 00:23:39;;;;;;;3.58;3.00;;;15.80;99.90;;;;;;5055844;28;20201;-83
2023/04/23 00:26:05;;;;;;;5.55;3.10;;;15.70;99.90;;;;;;5055649;28;20251;-84
2023/04/23 00:28:31;;;;;;;4.55;3.28;;;15.70;99.90;;;;;;5055583;28;20212;-83
2023/04/23 00:30:57;;;;;;;5.65;3.20;;;15.70;99.90;;;;;;5055533;28;20608;-83
2023/04/23 00:33:22;;;;;;;4.68;2.92;;;15.70;99.90;;;;;;5058568;28;20181;-83
2023/04/23 00:35:48;;;;;;;7.13;3.38;;;15.70;99.90;;;;;;5058770;28;20272;-83
2023/04/23 00:38:14;;;;;;;4.80;3.10;;;15.70;99.90;;;;;;5058517;28;20169;-83
2023/04/23 00:40:40;;;;;;;6.00;3.08;;;15.70;99.90;;;;;;5058496;28;20220;-83
2023/04/23 00:43:06;;;;;;;5.95;3.45;;;15.70;99.90;;;;;;5058513;28;20290;-84
2023/04/23 00:45:32;;;;;;;4.70;3.50;;;15.70;99.90;;;;;;5058727;28;20208;-82
2023/04/23 00:47:58;;;;;;;6.72;3.40;;;15.70;99.90;;;;;;5076347;28;20162;-82
2023/04/23 00:50:24;;;;;;;4.60;3.17;;;15.70;99.90;;;;;;5057254;28;20195;-82
2023/04/23 00:52:50;;;;;;;5.15;3.40;;;15.60;99.90;;;;;;5058352;28;20169;-82
2023/04/23 00:55:19;;;;;;;4.80;3.25;;;15.60;99.90;;;;;;5050502;28;20174;-83
2023/04/23 00:57:45;;;;;;;4.20;3.40;;;15.60;99.90;;;;;;5064013;28;20188;-83
2023/04/23 01:00:12;;;;;;;4.78;3.20;;;15.60;99.90;;;;;;5078236;28;20520;-83
2023/04/23 01:02:40;;;;;;;4.60;3.17;;;15.60;99.90;;;;;;5077363;28;20210;-83
2023/04/23 01:05:08;;;;;;;4.90;3.17;;;15.60;99.90;;;;;;5058079;28;20224;-83
2023/04/23 01:07:35;;;;;;;6.65;3.47;;;15.60;99.90;;;;;;5058017;28;20177;-83
2023/04/23 01:10:02;;;;;;;5.47;3.10;;;15.60;99.90;;;;;;5058110;28;20193;-83
2023/04/23 01:12:28;;;;;;;4.93;3.00;;;15.60;99.90;;;;;;5057842;28;20173;-84
2023/04/23 01:14:54;;;;;;;3.75;3.20;;;15.60;99.90;;;;;;5058283;28;20242;-85
2023/04/23 01:17:21;;;;;;;4.38;3.40;;;15.60;99.90;;;;;;5058092;28;20192;-83
2023/04/23 01:19:47;;;;;;;6.95;3.67;;;15.50;99.90;;;;;;5057480;28;20176;-83
2023/04/23 01:22:14;;;;;;;6.28;3.53;;;15.50;99.90;;;;;;5057732;28;20180;-84
2023/04/23 01:24:41;;;;;;;5.55;3.47;;;15.50;99.90;;;;;;5057760;28;20227;-83
2023/04/23 01:27:08;;;;;;;5.28;3.35;;;15.50;99.90;;;;;;5075735;28;20200;-82
2023/04/23 01:29:34;;;;;;;6.00;3.88;;;15.50;99.90;;;;;;5057815;28;20173;-83
2023/04/23 01:32:01;;;;;;;4.68;3.53;;;15.50;99.90;;;;;;5075368;28;20665;-83
2023/04/23 01:34:27;;;;;;;6.30;3.65;;;15.50;99.90;;;;;;5057433;28;20304;-83
2023/04/23 01:36:53;;;;;;;6.13;3.95;;;15.50;99.90;;;;;;5057435;28;20181;-83
2023/04/23 01:39:19;;;;;;;4.18;3.40;;;15.50;99.90;;;;;;5057630;28;20498;-83
2023/04/23 01:41:46;;;;;;;4.15;3.40;;;15.50;99.90;;;;;;5056845;28;20673;-83
2023/04/23 01:44:12;;;;;;;5.25;3.80;;;15.40;99.90;;;;;;5057271;28;20211;-83
2023/04/23 01:46:37;;;;;;;6.40;3.97;;;15.50;99.90;;;;;;5057342;28;20265;-83
2023/04/23 01:49:03;;;;;;;5.18;3.67;;;15.40;99.90;;;;;;5057331;28;20576;-83
2023/04/23 01:51:29;;;;;;;4.85;3.70;;;15.40;99.90;;;;;;5074778;28;20184;-84
2023/04/23 01:53:55;;;;;;;6.13;4.15;;;15.40;99.90;;;;;;5057437;28;20227;-83
2023/04/23 01:56:26;;;;;;;5.35;4.07;;;15.40;99.90;;;;;;5057246;28;20524;-83
2023/04/23 01:58:52;;;;;;;5.85;4.22;;;15.40;99.90;;;;;;5056949;28;20172;-84
2023/04/23 02:01:18;;;;;;;8.70;4.50;;;15.40;99.90;;;;;;5056474;28;20177;-83
2023/04/23 02:03:45;;;;;;;5.72;3.70;;;15.40;99.90;;;;;;5074004;28;20224;-83
2023/04/23 02:06:11;;;;;;;4.97;3.97;;;15.40;99.90;;;;;;5056777;28;20181;-83
2023/04/23 02:08:38;;;;;;;6.43;4.45;;;15.30;99.90;;;;;;5056854;28;20166;-84
2023/04/23 02:11:05;;;;;;;5.80;4.22;;;15.30;99.90;;;;;;5056473;28;20212;-83
2023/04/23 02:13:31;;;;;;;6.57;4.10;;;15.30;99.90;;;;;;5056673;28;20181;-83
2023/04/23 02:15:57;;;;;;;5.35;3.85;;;15.30;99.90;;;;;;5056575;28;20187;-83
2023/04/23 02:18:23;;;;;;;7.40;4.50;;;15.30;99.90;;;;;;5056360;28;20177;-83
2023/04/23 02:20:49;;;;;;;6.07;4.20;;;15.20;99.90;;;;;;5056388;28;20177;-84
2023/04/23 02:23:17;;;;;;;5.95;4.50;;;15.20;99.90;;;;;;5056656;28;20191;-83
2023/04/23 02:25:43;;;;;;;4.43;3.83;;;15.20;99.90;;;;;;5056774;28;20177;-82
2023/04/23 02:28:12;;;;;;;4.35;3.78;;;15.20;99.90;;;;;;5056748;28;20181;-83
2023/04/23 02:30:44;;;;;;;6.43;4.63;;;15.10;99.90;;;;;;5056706;28;20181;-83
2023/04/23 02:33:10;;;;;;;6.97;4.65;;;15.10;99.90;;;;;;5056730;28;20189;-83
2023/04/23 02:35:36;;;;;;;5.63;4.57;;;15.00;99.90;;;;;;5056425;28;20173;-84
2023/04/23 02:38:03;;;;;;;6.25;4.20;;;15.00;99.90;;;;;;5056359;28;20230;-84
2023/04/23 02:40:29;;;;;;;4.65;4.15;;;15.00;99.90;;;;;;5056515;28;20173;-84
2023/04/23 02:42:55;;;;;;;6.43;4.28;;;15.00;99.90;;;;;;5056230;28;20188;-84
2023/04/23 02:45:20;;;;;;;5.20;3.67;;;14.90;99.90;;;;;;5056711;28;20247;-84
2023/04/23 02:47:46;;;;;;;8.63;4.35;;;15.00;99.90;;;;;;5056408;28;20271;-84
2023/04/23 02:50:12;;;;;;;5.32;4.25;;;14.90;99.90;;;;;;5056067;28;20184;-84
2023/04/23 02:52:37;;;;;;;10.15;4.45;;;14.90;99.90;;;;;;5056152;28;20485;-83
2023/04/23 02:55:04;;;;;;;5.10;4.35;;;14.80;99.90;;;;;;5056209;28;20181;-84
2023/04/23 02:57:31;;;;;;;5.45;4.28;;;14.80;99.90;;;;;;5056371;28;20176;-82
2023/04/23 02:59:56;;;;;;;8.00;4.65;;;14.70;99.90;;;;;;5056478;28;20181;-83
2023/04/23 03:02:22;;;;;;;7.57;4.43;;;14.70;99.90;;;;;;5056359;28;20248;-82
2023/04/23 03:04:48;;;;;;;7.55;4.78;;;14.70;99.90;;;;;;5055346;28;20237;-84
2023/04/23 03:07:16;;;;;;;6.00;4.35;;;14.60;99.90;;;;;;5054679;28;20166;-84
2023/04/23 03:09:42;;;;;;;5.68;4.30;;;14.60;99.90;;;;;;5036899;28;20174;-84
2023/04/23 03:12:08;;;;;;;5.63;4.75;;;14.60;99.90;;;;;;5036382;28;20178;-84
2023/04/23 03:14:34;;;;;;;4.40;4.00;;;14.50;99.90;;;;;;5038360;28;20196;-85
2023/04/23 03:17:01;;;;;;;6.85;4.82;;;14.40;99.90;;;;;;5040940;28;20184;-86
2023/04/23 03:19:27;;;;;;;12.82;10.02;;;14.40;99.90;;;;;;5040302;28;20192;-87
2023/04/23 03:21:52;;;;;;;13.80;10.60;;;14.30;99.90;;;;;;5040633;28;20178;-88
2023/04/23 03:24:18;;;;;;;14.25;11.07;;;14.30;99.90;;;;;;5040363;28;20605;-86
2023/04/23 03:26:44;;;;;;;11.93;9.85;;;14.10;99.90;;;;;;5040324;28;20223;-88
2023/04/23 03:29:10;;;;;;;13.73;11.30;;;13.90;99.90;;;;;;5040517;28;20192;-87
2023/04/23 03:31:35;;;;;;;14.93;11.20;;;13.90;99.90;;;;;;5040569;28;20190;-86
2023/04/23 03:34:02;;;;;;;14.20;11.02;;;13.80;99.90;;;;;;5052445;28;20181;-88
2023/04/23 03:36:27;;;;;;;16.45;12.00;;;13.70;99.90;;;;;;5060364;28;20247;-86
2023/04/23 03:38:54;;;;;;;16.27;12.13;;;13.60;99.90;;;;;;5060505;28;20177;-86
2023/04/23 03:41:20;;;;;;;13.90;11.57;;;13.50;99.90;;;;;;5060144;28;20185;-88
2023/04/23 03:43:46;;;;;;;16.13;12.35;;;13.50;99.90;;;;;;5060363;28;20208;-86
2023/04/23 03:46:11;;;;;;;16.77;12.75;;;13.50;99.90;;;;;;5060193;28;20523;-86
2023/04/23 03:48:38;;;;;;;16.02;12.93;;;13.50;99.90;;;;;;5060207;28;20184;-86
2023/04/23 03:51:04;;;;;;;15.10;11.80;;;13.50;99.90;;;;;;5060258;28;20226;-86
2023/04/23 03:53:29;;;;;;;14.98;11.60;;;13.50;99.90;;;;;;5060233;28;20177;-87
2023/04/23 03:55:55;;;;;;;16.30;13.38;;;13.50;99.90;;;;;;5060093;28;20181;-85
2023/04/23 03:58:23;;;;;;;17.63;13.63;;;13.50;99.90;;;;;;5059877;28;20184;-87
2023/04/23 04:00:49;;;;;;;16.33;12.77;;;13.50;99.90;;;;;;5059779;28;20181;-86
2023/04/23 04:03:15;;;;;;;14.50;11.93;;;13.50;99.90;;;;;;5053881;28;20589;-87
2023/04/23 04:05:41;;;;;;;18.40;14.43;;;13.50;99.90;;;;;;5039729;28;20224;-87
2023/04/23 04:08:07;;;;;;;17.83;13.13;;;13.50;99.90;;;;;;5057244;28;20174;-86
2023/04/23 04:10:33;;;;;;;16.30;13.18;;;13.50;99.90;;;;;;5059747;28;20173;-87
2023/04/23 04:12:59;;;;;;;17.20;13.38;;;13.50;99.90;;;;;;5077382;28;20634;-87
2023/04/23 04:15:25;;;;;;;18.20;13.15;;;13.50;99.90;;;;;;5059722;28;20176;-87
2023/04/23 04:17:50;;;;;;;19.08;14.55;;;13.50;99.90;;;;;;5059865;28;20563;-86
2023/04/23 04:20:16;;;;;;;18.00;13.82;;;13.50;99.90;;;;;;5059433;28;20173;-87
2023/04/23 04:22:42;;;;;;;18.88;14.38;;;13.50;99.90;;;;;;5059650;28;20181;-87
2023/04/23 04:25:08;;;;;;;18.40;15.07;;;13.40;99.90;;;;;;5058957;28;20204;-86
2023/04/23 04:27:34;;;;;;;19.10;14.93;;;13.40;99.90;;;;;;5059297;28;20177;-86
2023/04/23 04:30:01;;;;;;;19.67;14.60;;;13.40;99.90;;;;;;5058877;28;20203;-86
2023/04/23 04:32:30;;;;;;;18.38;14.82;;;13.40;99.90;;;;;;5058737;28;20188;-86
2023/04/23 04:34:56;;;;;;;19.23;14.45;;;13.40;99.90;;;;;;5058731;28;20185;-86
2023/04/23 04:37:22;;;;;;;20.52;14.65;;;13.40;99.90;;;;;;5058879;28;20173;-85
2023/04/23 04:39:48;;;;;;;21.25;15.98;;;13.40;99.90;;;;;;5058846;28;20176;-86
2023/04/23 04:42:15;;;;;;;18.75;15.20;;;13.40;99.90;;;;;;5076350;28;20607;-85
2023/04/23 04:44:42;;;;;;;22.83;15.77;;;13.30;99.90;;;;;;5058671;28;20308;-87
2023/04/23 04:47:08;;;;;;;19.50;15.80;;;13.30;99.90;;;;;;5058856;28;20620;-85
2023/04/23 04:49:34;;;;;;;18.13;14.50;;;13.30;99.90;;;;;;5057947;28;20177;-86
2023/04/23 04:52:00;;;;;;;19.02;15.20;;;13.20;99.90;;;;;;5046861;28;20197;-86
2023/04/23 04:54:31;;;;;;;19.95;15.52;;;13.30;99.90;;;;;;5085788;28;20184;-86
2023/04/23 04:56:57;;;;;;;21.83;16.30;;;13.30;99.90;;;;;;5055711;28;20177;-85
2023/04/23 04:59:22;;;;;;;21.33;15.00;;;13.30;99.90;;;;;;5075890;28;20181;-84
2023/04/23 05:01:48;;;;;;;21.02;16.13;;;13.30;99.90;;;;;;5054449;28;20208;-84
2023/04/23 05:04:14;;;;;;;20.98;16.95;;;13.30;99.90;;;;;;5090542;28;20233;-83
2023/04/23 05:06:40;;;;;;;17.38;14.32;;;13.30;99.90;;;;;;5091255;28;20183;-83
2023/04/23 05:09:07;;;;;;;18.52;14.98;;;13.30;99.90;;;;;;5075682;28;20207;-84
2023/04/23 05:11:34;;;;;;;19.55;15.55;;;13.30;99.90;;;;;;5091236;28;20246;-84
2023/04/23 05:14:00;;;;;;;19.70;15.00;;;13.30;99.90;;;;;;5079320;28;20206;-84
2023/04/23 05:16:26;;;;;;;18.83;15.00;;;13.30;99.90;;;;;;5066432;28;20169;-85
2023/04/23 05:18:53;;;;;;;20.67;15.77;;;13.20;99.90;;;;;;5053113;28;20235;-84
2023/04/23 05:21:19;;;;;;;19.85;15.80;;;13.20;99.90;;;;;;5080355;28;20177;-84
2023/04/23 05:23:45;;;;;;;22.15;16.90;;;13.20;99.90;;;;;;5067185;28;20521;-84
2023/04/23 05:26:11;;;;;;;21.00;17.15;;;13.20;99.90;;;;;;5049299;28;20188;-84
2023/04/23 05:28:37;;;;;;;20.38;16.17;;;13.20;99.90;;;;;;5055188;28;20165;-86
2023/04/23 05:31:03;;;;;;;20.75;16.35;;;13.20;99.90;;;;;;5083487;28;20479;-84
2023/04/23 05:33:29;;;;;;;20.73;16.70;;;13.20;99.90;;;;;;5053834;28;20173;-85
2023/04/23 05:35:56;;;;;;;19.90;16.15;;;13.20;99.90;;;;;;5053808;28;20192;-85
2023/04/23 05:38:21;;;;;;;20.75;16.30;;;13.10;99.90;;;;;;5039624;28;20183;-83
2023/04/23 05:40:47;;;;;;;25.42;18.48;;;13.10;99.90;;;;;;5043862;28;20177;-84
2023/04/23 05:43:13;;;;;;;20.70;17.08;;;13.00;99.90;;;;;;5052109;28;20177;-84
2023/04/23 05:45:39;;;;;;;22.70;17.52;;;13.00;99.90;;;;;;5075174;28;20209;-86
2023/04/23 05:48:04;;;;;;;27.80;18.83;;;12.90;99.90;;;;;;5090793;28;20627;-84
2023/04/23 05:50:31;;;;;;;27.17;19.80;;;12.90;99.90;;;;;;5074653;28;20185;-86
2023/04/23 05:52:57;;;;;;;28.80;20.25;;;12.90;99.90;;;;;;5090949;28;20176;-87
2023/04/23 05:55:23;;;;;;;28.17;20.73;;;12.90;99.90;;;;;;5091304;28;20173;-87
2023/04/23 05:57:48;;;;;;;28.05;20.25;;;12.80;99.90;;;;;;5091203;28;20215;-86
2023/04/23 06:00:15;;;;;;;28.67;20.63;;;12.80;99.90;;;;;;5067808;28;20709;-85
2023/04/23 06:02:41;;;;;;;28.48;20.55;;;12.70;99.90;;;;;;5048182;28;20187;-83
2023/04/23 06:05:08;;;;;;;28.30;21.23;;;12.70;99.90;;;;;;5067529;28;20539;-84
2023/04/23 06:07:34;;;;;;;29.95;21.25;;;12.70;99.90;;;;;;5037118;28;20612;-86
2023/04/23 06:10:03;;;;;;;29.60;20.98;;;12.60;99.90;;;;;;5037308;28;20192;-86
2023/04/23 06:12:29;;;;;;;30.10;21.55;;;12.70;99.90;;;;;;5037203;28;20201;-86
2023/04/23 06:14:55;;;;;;;29.38;21.88;;;12.70;99.90;;;;;;5036980;28;20205;-86
2023/04/23 06:17:20;;;;;;;28.95;20.35;;;12.70;99.90;;;;;;5037415;28;20221;-85
2023/04/23 06:19:50;;;;;;;32.13;22.13;;;12.60;99.90;;;;;;5036916;28;20181;-86
2023/04/23 06:22:15;;;;;;;29.98;21.15;;;12.60;99.90;;;;;;5037493;28;20182;-87
2023/04/23 06:24:41;;;;;;;26.48;19.15;;;12.60;99.90;;;;;;5037081;28;20539;-85
2023/04/23 06:27:07;;;;;;;28.80;19.92;;;12.60;99.90;;;;;;5054969;28;20174;-85
2023/04/23 06:29:33;;;;;;;31.92;20.23;;;12.60;99.90;;;;;;5036992;28;20177;-86
2023/04/23 06:32:03;;;;;;;28.58;19.90;;;12.60;99.90;;;;;;5039977;28;20177;-85
2023/04/23 06:34:29;;;;;;;26.98;19.38;;;12.60;99.90;;;;;;5077687;28;20728;-86
2023/04/23 06:36:55;;;;;;;28.42;19.52;;;12.60;99.90;;;;;;5075031;28;20173;-87
2023/04/23 06:39:22;;;;;;;25.92;19.05;;;12.50;99.90;;;;;;5056955;28;20174;-85
2023/04/23 06:41:48;;;;;;;26.25;18.75;;;12.60;99.90;;;;;;5056848;28;20225;-86
2023/04/23 06:44:14;;;;;;;27.23;18.15;;;12.50;99.90;;;;;;5056991;28;20233;-87
2023/04/23 06:46:40;;;;;;;27.60;18.55;;;12.40;99.90;;;;;;5056896;28;20638;-86
2023/04/23 06:49:15;;;;;;;27.30;17.95;;;12.40;99.90;;;;;;5056848;28;20177;-87
2023/04/23 06:51:41;;;;;;;25.60;18.17;;;12.30;99.90;;;;;;5056466;28;20204;-86
2023/04/23 06:54:07;;;;;;;24.52;17.50;;;12.20;99.90;;;;;;5075123;28;20170;-87
2023/04/23 06:56:33;;;;;;;23.80;17.90;;;12.20;99.90;;;;;;5056552;28;20268;-87
2023/04/23 06:58:58;;;;;;;25.55;18.30;;;12.20;99.90;;;;;;5056560;28;20268;-85
2023/04/23 07:01:24;;;;;;;26.92;19.25;;;12.20;99.90;;;;;;5056106;28;20910;-85
2023/04/23 07:03:53;;;;;;;24.77;17.80;;;12.20;99.90;;;;;;5053299;28;20233;-85
2023/04/23 07:06:19;;;;;;;25.00;18.52;;;12.30;99.90;;;;;;5036294;28;20284;-87
2023/04/23 07:08:44;;;;;;;26.20;19.05;;;12.30;99.90;;;;;;5036958;28;20217;-86
2023/04/23 07:11:11;;;;;;;25.58;17.70;;;12.30;99.90;;;;;;5051350;28;20177;-86
2023/04/23 07:13:38;;;;;;;23.70;17.65;;;12.40;99.90;;;;;;5050662;28;20615;-85
2023/04/23 07:16:04;;;;;;;22.77;17.02;;;12.40;99.90;;;;;;5059912;28;20535;-85
2023/04/23 07:18:31;;;;;;;23.83;17.15;;;12.40;99.90;;;;;;5039279;28;20196;-87
2023/04/23 07:30:51;;;;;;;21.65;15.63;;;12.60;99.90;;;;;;3785666;22;20215;31
2023/04/23 07:33:17;;;;;;;21.08;15.75;;;12.50;99.90;;;;;;4993296;28;20527;-84
2023/04/23 07:35:43;;;;;;;20.60;16.23;;;12.50;99.90;;;;;;4994123;28;20194;-84
2023/04/23 07:38:09;;;;;;;21.02;16.50;;;12.50;99.90;;;;;;4976833;28;20176;-84
2023/04/23 07:40:35;;;;;;;25.08;16.58;;;12.40;99.90;;;;;;4977521;28;20180;-85
2023/04/23 07:43:01;;;;;;;23.60;17.25;;;12.50;99.90;;;;;;4994450;28;20256;-85
2023/04/23 07:45:27;;;;;;;21.60;16.25;;;12.60;99.90;;;;;;4976281;28;20298;-84
2023/04/23 07:47:53;;;;;;;21.90;16.55;;;12.70;99.90;;;;;;4977235;28;20542;-85
2023/04/23 07:50:19;;;;;;;24.15;17.38;;;12.80;99.90;;;;;;4995052;28;20180;-84
2023/04/23 07:52:44;;;;;;;23.70;17.25;;;12.90;99.90;;;;;;4994826;28;20172;-85
2023/04/23 07:55:10;;;;;;;21.35;16.50;;;13.10;99.90;;;;;;4977598;28;20199;-84
2023/04/23 07:57:36;;;;;;;20.67;15.02;;;13.30;99.90;;;;;;4977538;28;20211;-86
2023/04/23 08:00:03;;;;;;;21.77;14.85;;;13.30;99.90;;;;;;4978427;28;20243;-86
2023/04/23 08:02:30;;;;;;;19.15;14.55;;;13.30;99.90;;;;;;4977781;28;20530;-87
2023/04/23 08:04:56;;;;;;;21.33;14.75;;;13.30;99.90;;;;;;4980649;28;20247;-89
2023/04/23 08:07:21;;;;;;;20.92;15.65;;;13.30;99.90;;;;;;4979590;28;20187;-85
2023/04/23 08:09:47;;;;;;;18.20;14.20;;;13.30;99.90;;;;;;4980609;28;20180;-86
2023/04/23 08:12:16;;;;;;;20.88;15.02;;;13.30;99.90;;;;;;4985925;28;20184;-87
2023/04/23 08:14:42;;;;;;;20.30;15.18;;;13.40;99.90;;;;;;4977949;28;20226;-86
2023/04/23 08:17:08;;;;;;;20.83;15.60;;;13.50;99.90;;;;;;4979160;28;20207;-85
2023/04/23 08:19:34;;;;;;;20.90;14.98;;;13.50;99.90;;;;;;4980749;28;20218;-86
2023/04/23 08:21:59;;;;;;;24.02;16.75;;;13.50;99.90;;;;;;4980971;28;20184;-84
2023/04/23 08:24:26;;;;;;;22.33;16.70;;;13.60;99.90;;;;;;4980142;28;20211;-84
2023/04/23 08:26:52;;;;;;;20.85;15.65;;;13.80;99.90;;;;;;4980026;28;21671;-88
2023/04/23 08:29:18;;;;;;;19.73;15.65;;;14.00;99.90;;;;;;4977628;28;20195;-87
2023/04/23 08:31:43;;;;;;;20.58;15.20;;;14.20;99.90;;;;;;4973807;28;20211;-86
2023/04/23 08:34:11;;;;;;;21.23;15.35;;;14.50;99.90;;;;;;4979029;28;20184;-87
2023/04/23 08:36:37;;;;;;;19.70;15.02;;;14.60;99.90;;;;;;4978765;28;20287;-86
2023/04/23 08:39:04;;;;;;;18.63;14.63;;;14.70;99.90;;;;;;4980429;28;20685;-85
2023/04/23 08:41:43;;;;;;;18.23;14.13;;;14.90;99.90;;;;;;4976405;28;20274;-84
2023/04/23 08:44:24;;;;;;;20.25;14.45;;;14.90;99.90;;;;;;4968960;28;20195;-86
2023/04/23 08:46:56;;;;;;;18.85;14.23;;;15.00;99.90;;;;;;4979046;28;20192;-88
2023/04/23 08:49:22;;;;;;;19.63;14.27;;;15.10;99.90;;;;;;4980030;28;20168;-87
2023/04/23 08:51:51;;;;;;;21.75;13.43;;;15.10;99.90;;;;;;4979342;28;20266;-86
2023/04/23 08:54:31;;;;;;;16.35;12.70;;;15.10;99.90;;;;;;4979360;28;20191;-86
2023/04/23 08:56:57;;;;;;;18.83;12.75;;;15.20;99.90;;;;;;4975656;28;20180;-87
2023/04/23 08:59:30;;;;;;;14.70;11.23;;;15.30;99.90;;;;;;4988830;28;20198;-86
2023/04/23 09:01:56;;;;;;;15.73;12.07;;;15.30;99.90;;;;;;4981065;28;20188;-87
2023/04/23 09:04:24;;;;;;;18.35;12.60;;;15.20;99.90;;;;;;4978612;28;20207;-85
2023/04/23 09:06:50;;;;;;;17.48;13.65;;;15.20;99.90;;;;;;4980470;28;20517;-86
2023/04/23 09:09:17;;;;;;;18.52;14.18;;;15.30;99.90;;;;;;4997149;28;20638;-87
2023/04/23 09:11:43;;;;;;;21.13;14.68;;;15.40;99.90;;;;;;4979120;28;20238;-85
2023/04/23 09:14:09;;;;;;;18.20;13.40;;;15.60;99.90;;;;;;4979495;28;20238;-84
2023/04/23 09:16:35;;;;;;;16.20;12.45;;;15.90;99.90;;;;;;4990399;28;20187;-89
2023/04/23 09:19:01;;;;;;;16.25;12.73;;;16.00;99.90;;;;;;4996982;28;20603;-86
2023/04/23 09:21:27;;;;;;;17.45;11.50;;;16.00;99.90;;;;;;4979295;28;20640;-88
2023/04/23 09:23:54;;;;;;;14.23;12.23;;;16.20;99.90;;;;;;4979795;28;20207;-88
2023/04/23 09:26:21;;;;;;;14.93;11.43;;;16.30;99.90;;;;;;4979894;28;20180;-88
2023/04/23 09:28:52;;;;;;;18.10;12.95;;;16.40;99.90;;;;;;4979736;28;20702;-87
2023/04/23 09:31:22;;;;;;;19.70;15.55;;;16.40;99.90;;;;;;4979228;28;20654;-83
2023/04/23 09:33:54;;;;;;;20.75;16.15;;;16.40;99.90;;;;;;4978756;28;20202;-86
2023/04/23 09:36:23;;;;;;;17.05;13.20;;;16.30;99.90;;;;;;4978979;28;20682;-89
2023/04/23 09:38:49;;;;;;;18.85;13.63;;;16.30;99.90;;;;;;4979683;28;20184;-87
2023/04/23 09:41:21;;;;;;;18.00;13.25;;;16.40;99.90;;;;;;4979314;28;20507;-87
2023/04/23 09:43:47;;;;;;;15.77;13.55;;;16.40;99.90;;;;;;4978469;28;20184;-89
2023/04/23 09:46:13;;;;;;;16.63;12.18;;;16.40;99.90;;;;;;4978518;28;20184;-91
2023/04/23 09:48:42;;;;;;;13.55;10.73;;;16.40;99.90;;;;;;4979357;28;20180;-85
2023/04/23 09:51:12;;;;;;;12.50;10.18;;;16.50;99.90;;;;;;4979015;28;20263;-85
2023/04/23 09:53:43;;;;;;;13.85;10.02;;;16.60;99.90;;;;;;4979112;28;20186;-85
2023/04/23 09:56:08;;;;;;;16.83;9.50;;;16.60;99.90;;;;;;4974412;28;20188;-90
2023/04/23 09:58:34;;;;;;;14.82;10.07;;;16.70;99.90;;;;;;4977271;28;20179;-90
2023/04/23 10:01:07;;;;;;;12.85;9.98;;;16.80;99.90;;;;;;4962628;28;20191;-90
2023/04/23 10:03:33;;;;;;;11.98;10.00;;;16.80;99.90;;;;;;4979072;28;20614;-89
2023/04/23 10:06:00;;;;;;;11.18;8.65;;;17.10;99.90;;;;;;4978049;28;20191;-87
2023/04/23 10:08:27;;;;;;;12.30;9.70;;;17.10;99.90;;;;;;4975126;28;20184;-89
2023/04/23 10:10:53;;;;;;;11.55;9.15;;;17.20;99.90;;;;;;4976867;28;20169;-90
2023/04/23 10:13:18;;;;;;;13.82;10.23;;;17.30;99.90;;;;;;4959964;28;20176;-89
2023/04/23 10:15:46;;;;;;;12.15;10.07;;;17.40;99.90;;;;;;4959321;28;20234;-89
2023/04/23 10:18:15;;;;;;;14.93;10.38;;;17.30;99.90;;;;;;4959046;28;20180;-85
2023/04/23 10:20:41;;;;;;;14.02;9.90;;;17.40;99.90;;;;;;4978009;28;20279;-91
2023/04/23 10:23:10;;;;;;;10.35;8.40;;;17.60;99.90;;;;;;4978584;28;20266;-88
2023/04/23 10:25:39;;;;;;;10.60;8.48;;;17.60;99.90;;;;;;4996127;28;20642;-88
2023/04/23 10:28:07;;;;;;;13.13;8.95;;;17.50;99.90;;;;;;4978368;28;20275;-91
2023/04/23 10:30:33;;;;;;;10.38;9.00;;;17.50;99.90;;;;;;4977835;28;20180;-92
2023/04/23 10:33:00;;;;;;;11.85;8.95;;;17.50;99.90;;;;;;4975056;28;20252;-89
2023/04/23 10:35:31;;;;;;;10.30;8.60;;;17.60;99.90;;;;;;4975403;28;20535;-90
2023/04/23 10:37:57;;;;;;;10.95;8.13;;;17.70;99.90;;;;;;4959358;28;20176;-87
2023/04/23 10:40:31;;;;;;;10.30;7.82;;;17.90;99.90;;;;;;4959255;28;20615;-92
2023/04/23 10:42:58;;;;;;;7.72;6.93;;;17.90;99.90;;;;;;4959417;28;20181;-87
2023/04/23 10:45:24;;;;;;;8.93;6.85;;;18.00;99.90;;;;;;4976316;28;20259;-89
2023/04/23 10:47:53;;;;;;;9.07;7.30;;;18.00;99.90;;;;;;4959112;28;20176;-87
2023/04/23 10:50:23;;;;;;;11.57;8.15;;;18.00;99.90;;;;;;4975220;28;20389;-87
2023/04/23 10:52:52;;;;;;;9.70;7.57;;;18.00;99.90;;;;;;4958946;28;20562;-87
2023/04/23 10:55:27;;;;;;;10.93;8.18;;;17.80;99.90;;;;;;4958793;28;20191;-87
2023/04/23 10:57:57;;;;;;;13.40;8.45;;;17.80;99.90;;;;;;4976119;28;20168;-85
2023/04/23 11:00:23;;;;;;;9.82;8.10;;;18.10;99.90;;;;;;4958801;28;20179;-87
2023/04/23 11:02:51;;;;;;;9.68;7.60;;;18.20;99.90;;;;;;4975959;28;20573;-87
2023/04/23 11:05:21;;;;;;;8.32;6.88;;;18.30;99.90;;;;;;4978174;28;20578;-87
2023/04/23 11:08:04;;;;;;;9.55;7.22;;;18.30;99.90;;;;;;4995626;28;20187;-87
2023/04/23 11:10:31;;;;;;;9.30;7.03;;;18.10;99.90;;;;;;4977968;28;20188;-90
2023/04/23 11:13:17;;;;;;;9.43;7.35;;;18.30;99.90;;;;;;4995435;28;20171;-87
2023/04/23 11:15:43;;;;;;;8.02;6.57;;;18.50;99.90;;;;;;4976006;28;20183;-86
2023/04/23 11:18:10;;;;;;;7.85;6.40;;;18.70;99.90;;;;;;4978022;28;20184;-87
2023/04/23 11:20:36;;;;;;;8.70;6.53;;;19.00;99.90;;;;;;4978108;28;20176;-88
2023/04/23 11:23:06;;;;;;;8.27;6.03;;;18.70;99.90;;;;;;4978073;28;20594;-87
2023/04/23 11:25:34;;;;;;;7.82;6.35;;;18.80;99.90;;;;;;4977769;28;20211;-88
2023/04/23 11:28:00;;;;;;;8.40;5.93;;;18.80;99.90;;;;;;4978157;28;20238;-88
2023/04/23 11:30:28;;;;;;;7.40;6.18;;;19.00;99.90;;;;;;4995297;28;20172;-86
2023/04/23 11:32:57;;;;;;;8.80;6.65;;;18.80;99.90;;;;;;4977574;28;20232;-88
2023/04/23 11:35:29;;;;;;;9.05;7.25;;;18.90;97.60;;;;;;4979566;28;20175;-88
2023/04/23 11:37:55;;;;;;;8.75;6.13;;;18.80;96.40;;;;;;4981869;28;20180;-88
2023/04/23 11:40:23;;;;;;;8.02;6.10;;;18.40;98.10;;;;;;4981619;28;20207;-87
2023/04/23 11:42:50;;;;;;;8.05;5.93;;;18.40;98.00;;;;;;4999046;28;20178;-88
2023/04/23 11:45:21;;;;;;;7.22;6.50;;;18.50;99.90;;;;;;4981174;28;20261;-87
2023/04/23 11:47:49;;;;;;;8.43;6.65;;;18.70;99.90;;;;;;4981160;28;20172;-86
2023/04/23 11:50:20;;;;;;;7.30;6.05;;;19.10;99.90;;;;;;4981713;28;20179;-87
2023/04/23 11:52:46;;;;;;;13.77;6.07;;;19.40;99.90;;;;;;4999009;28;20210;-85
2023/04/23 11:55:12;;;;;;;7.38;6.47;;;19.50;99.90;;;;;;4981364;28;20211;-86
2023/04/23 11:57:43;;;;;;;8.50;6.35;;;19.60;99.70;;;;;;4981367;28;20607;-88
2023/04/23 12:00:17;;;;;;;6.70;5.70;;;19.90;99.90;;;;;;4998706;28;20238;-86
2023/04/23 12:03:04;;;;;;;6.07;4.85;;;19.90;98.50;;;;;;4978389;28;20183;-85
2023/04/23 12:05:32;;;;;;;7.65;5.88;;;19.80;97.80;;;;;;4981159;28;20262;-92
2023/04/23 12:08:13;;;;;;;6.95;5.88;;;19.60;97.40;;;;;;4981296;28;20193;-89
2023/04/23 12:10:46;;;;;;;6.53;5.72;;;19.80;97.20;;;;;;4981309;28;20211;-88
2023/04/23 12:13:20;;;;;;;8.02;5.30;;;19.70;95.90;;;;;;4981143;28;20179;-85
2023/04/23 12:15:55;;;;;;;4.85;3.97;;;19.80;99.30;;;;;;4981030;28;20232;-86
2023/04/23 12:18:30;;;;;;;3.97;3.33;;;20.00;96.80;;;;;;4980772;28;20187;-85
2023/04/23 12:21:03;;;;;;;4.97;3.47;;;20.20;94.80;;;;;;4980962;28;20175;-87
2023/04/23 12:23:29;;;;;;;3.72;3.08;;;20.30;96.50;;;;;;4998336;28;20160;-87
2023/04/23 12:25:59;;;;;;;5.80;4.55;;;20.50;94.30;;;;;;4980333;28;20651;-87
2023/04/23 12:28:25;;;;;;;6.88;4.18;;;20.60;95.70;;;;;;4998057;28;20170;-88
2023/04/23 12:30:51;;;;;;;4.65;4.15;;;20.70;96.50;;;;;;4980477;28;20274;-85
2023/04/23 12:33:17;;;;;;;5.05;4.40;;;20.50;95.90;;;;;;4997554;28;20234;-85
2023/04/23 12:35:51;;;;;;;5.40;4.05;;;20.50;95.10;;;;;;4980331;28;20376;-86
2023/04/23 12:38:27;;;;;;;5.25;4.07;;;20.60;95.50;;;;;;4980540;28;20187;-87
2023/04/23 12:40:55;;;;;;;7.78;4.22;;;20.70;96.80;;;;;;4980654;28;20187;-87
2023/04/23 12:43:20;;;;;;;5.35;4.00;;;20.80;94.80;;;;;;4980509;28;20278;-89
2023/04/23 12:45:47;;;;;;;4.70;4.30;;;20.90;93.50;;;;;;4979995;28;20302;-87